Stillwater, OK

3:22 AM CST on February 06, 2016 (GMT -0600)
Stillwater Municipal | | Change Station
CLOSE
Current Station
Airport
Location: Stillwater,
Elevation: 981 ft
Nearby Weather Stations

Elev 981 ft 36.16 °N, 97.09 °W | Updated 29 minutes ago

Mostly Cloudy
Mostly Cloudy
39 °F
Feels Like 34 °F
N
7
Wind Variable Wind from NNW

Today
High -- | Low -- °F
--% Chance of Precip.
Yesterday
High -- | Low -- °F
Precip. -- in
Pressure 30.29 in
Visibility 10.0 miles
Clouds Mostly Cloudy 8500 ft
Windchill 34 °F
Dew Point 36 °F
Humidity 89%
Rainfall 0.01 in
Snow Depth Not available.
7:25 AM 5:59 PM
Waning Crescent, 6% visible
METAR KSWO 060853Z AUTO 33006KT 10SM BKN085 04/02 A3029 RMK AO2 SLP256 60001 T00390022 55002 TSNO $
Pressure 30.29 in
Visibility 10.0 miles
Clouds Mostly Cloudy 8500 ft
Windchill 34 °F
Dew Point 36 °F
Humidity 89%
Rainfall 0.01 in
Snow Depth Not available.
7:25 AM 5:59 PM
Waning Crescent, 6% visible
METAR KSWO 060853Z AUTO 33006KT 10SM BKN085 04/02 A3029 RMK AO2 SLP256 60001 T00390022 55002 TSNO $

10-Day Weather Forecast

Almanac

Astronomy

Feb. 06, 2016 Rise Set
Actual Time
Civil Twilight
Nautical Twilight
Astronomical Twilight
Moon
Length of Visible Light
Length of Day
Tomorrow will be .
, % of the Moon is Illuminated

Today's Extremes

State Highs State Lows

Community

WunderPhotos

Upload Photos

1,890,933 photos uploaded!

WunderBlog® & News

Nearby

Air Quality

  Air Quality AQ Index Pollutant
Not available.

Snow Depth

Station Depth Elevation

Earthquake Activity

City Distance Mag. Time & Date
Minimum magnitude displayed is 2.5.

Coastal Water Temperatures

Place Temperature

Stations

Nearby Weather Stations

Station Location Temp. Windchill Dew Point Humidity Wind Precip. Elev Updated Type
                   

Watches & Warnings

There are currently no watches in effect.